Time;durP1;ratioP1;P1;durP2;ratioP2;P2;SDS_P1;SDS_P2;PMS_P1;PMS_P2;Temp;Humidity;BMP_temperature;BMP_pressure;BME280_temperature;BME280_humidity;BME280_pressure;Samples;Min_cycle;Max_cycle;Signal;HPM_P1;HPM_P2
2023/11/02 00:02:05;;;;;;;4.50;3.90;;;;;;;6.94;100.00;98183.16;6112772;23;20509;-79
2023/11/02 00:04:36;;;;;;;5.33;4.30;;;;;;;6.90;100.00;98182.00;6139318;23;20163;-80
2023/11/02 00:07:07;;;;;;;4.10;3.67;;;;;;;6.87;100.00;98186.97;6139625;23;20170;-80
2023/11/02 00:09:39;;;;;;;4.20;3.50;;;;;;;6.80;100.00;98194.25;6164214;23;20229;-80
2023/11/02 00:12:40;;;;;;;4.13;3.70;;;;;;;6.75;100.00;98196.78;6140544;23;20182;-80
2023/11/02 00:15:13;;;;;;;4.03;3.60;;;;;;;6.72;100.00;98190.06;6137217;23;20174;-81
2023/11/02 00:17:53;;;;;;;4.33;3.93;;;;;;;6.66;100.00;98190.19;6137070;23;20170;-81
2023/11/02 00:20:36;;;;;;;5.53;3.80;;;;;;;6.60;100.00;98187.41;6165316;23;20278;-81
2023/11/02 00:23:06;;;;;;;4.03;3.63;;;;;;;6.49;100.00;98180.19;6139812;23;20224;-81
2023/11/02 00:25:48;;;;;;;6.60;4.00;;;;;;;6.45;100.00;98179.03;6163502;23;20167;-80
2023/11/02 00:28:22;;;;;;;3.97;3.57;;;;;;;6.44;100.00;98171.31;6164314;23;20163;-81
2023/11/02 00:30:54;;;;;;;4.20;3.80;;;;;;;6.45;100.00;98171.06;6164326;23;20194;-80
2023/11/02 00:33:24;;;;;;;4.47;4.07;;;;;;;6.39;100.00;98168.50;6164554;23;20245;-80
2023/11/02 00:35:53;;;;;;;4.20;3.80;;;;;;;6.39;100.00;98163.97;6163808;23;20162;-80
2023/11/02 00:38:27;;;;;;;4.80;4.03;;;;;;;6.40;100.00;98170.09;6163522;23;20610;-80
2023/11/02 00:41:00;;;;;;;4.63;4.23;;;;;;;6.37;100.00;98175.91;6163826;23;20232;-80
2023/11/02 00:43:29;;;;;;;4.10;3.80;;;;;;;6.32;100.00;98171.25;6164521;23;20191;-80
2023/11/02 00:46:02;;;;;;;7.00;3.97;;;;;;;6.28;100.00;98167.44;6152610;23;20195;-81
2023/11/02 00:48:33;;;;;;;4.43;4.03;;;;;;;6.28;100.00;98175.41;6165692;23;20635;-81
2023/11/02 00:51:26;;;;;;;4.27;3.87;;;;;;;6.26;100.00;98168.69;6164751;23;20266;-81
2023/11/02 00:53:57;;;;;;;5.07;4.30;;;;;;;6.24;100.00;98165.47;6140637;23;20171;-81
2023/11/02 00:56:34;;;;;;;4.17;3.67;;;;;;;6.23;100.00;98166.50;6140323;23;20163;-81
2023/11/02 00:59:06;;;;;;;4.13;3.73;;;;;;;6.22;100.00;98156.88;6165034;23;20163;-81
2023/11/02 01:01:41;;;;;;;3.97;3.40;;;;;;;6.19;100.00;98163.47;6164825;23;20171;-80
2023/11/02 01:04:48;;;;;;;4.20;3.80;;;;;;;6.15;100.00;98152.50;6165305;23;20169;-81
2023/11/02 01:07:20;;;;;;;3.83;3.43;;;;;;;6.11;100.00;98150.50;6146078;23;20602;-80
2023/11/02 01:09:53;;;;;;;3.90;3.50;;;;;;;6.07;100.00;98150.13;6139838;23;20186;-80
2023/11/02 01:12:41;;;;;;;4.33;3.50;;;;;;;6.08;100.00;98142.97;6165238;23;20500;-80
2023/11/02 01:15:44;;;;;;;4.20;3.80;;;;;;;6.02;100.00;98141.25;6164759;23;20168;-81
2023/11/02 01:18:23;;;;;;;3.83;3.43;;;;;;;5.98;100.00;98145.34;6165780;23;20152;-81
2023/11/02 01:21:00;;;;;;;4.23;3.30;;;;;;;5.94;100.00;98137.03;6165266;23;20254;-80
2023/11/02 01:23:34;;;;;;;3.90;3.47;;;;;;;5.91;100.00;98140.16;6163749;23;20174;-80
2023/11/02 01:26:08;;;;;;;4.03;3.57;;;;;;;5.86;100.00;98133.84;6139867;23;20628;-81
2023/11/02 01:28:53;;;;;;;3.80;3.50;;;;;;;5.76;100.00;98131.72;6164258;23;20190;-80
2023/11/02 01:31:27;;;;;;;3.80;3.30;;;;;;;5.68;100.00;98129.41;6164596;23;20179;-81
2023/11/02 01:33:59;;;;;;;3.77;3.47;;;;;;;5.58;100.00;98129.94;6139872;23;20278;-81
2023/11/02 01:36:34;;;;;;;5.10;3.63;;;;;;;5.53;100.00;98135.09;6163243;23;20154;-80
2023/11/02 01:39:32;;;;;;;4.73;3.37;;;;;;;5.50;100.00;98137.41;6165488;23;20245;-80
2023/11/02 01:42:14;;;;;;;3.60;3.30;;;;;;;5.40;100.00;98140.56;6135170;23;20167;-80
2023/11/02 01:45:01;;;;;;;3.80;3.50;;;;;;;5.31;100.00;98136.59;6164555;23;20241;-81
2023/11/02 01:47:49;;;;;;;3.80;3.40;;;;;;;5.23;100.00;98136.88;6164170;23;20163;-80
2023/11/02 01:50:35;;;;;;;3.77;3.33;;;;;;;5.21;100.00;98131.81;6138529;23;20198;-80
2023/11/02 01:57:42;;;;;;;3.60;3.30;;;;;;;5.03;100.00;98133.63;6119328;23;20182;-81
2023/11/02 02:00:18;;;;;;;3.50;3.20;;;;;;;4.96;100.00;98139.00;6137671;23;20235;-80
2023/11/02 02:02:47;;;;;;;3.53;3.23;;;;;;;4.95;100.00;98132.06;6114637;23;20171;-81
2023/11/02 02:05:35;;;;;;;3.80;3.50;;;;;;;4.92;100.00;98127.19;6163496;23;20171;-81
2023/11/02 02:08:17;;;;;;;4.00;3.60;;;;;;;4.83;100.00;98117.91;6138832;23;20159;-81
2023/11/02 02:11:15;;;;;;;3.27;2.97;;;;;;;4.79;100.00;98114.88;6164895;23;20179;-80
2023/11/02 02:13:56;;;;;;;3.80;3.50;;;;;;;4.76;100.00;98103.88;6114394;23;20171;-80
2023/11/02 02:16:51;;;;;;;3.70;3.40;;;;;;;4.70;100.00;98100.28;6138708;23;20618;-81
2023/11/02 02:19:48;;;;;;;3.67;3.07;;;;;;;4.68;100.00;98096.22;6164086;23;20175;-81
2023/11/02 02:22:34;;;;;;;3.50;3.10;;;;;;;4.68;100.00;98101.50;6139129;23;20193;-81
2023/11/02 02:25:44;;;;;;;6.27;3.50;;;;;;;4.68;100.00;98077.63;6114403;23;20185;-79
2023/11/02 02:28:42;;;;;;;4.40;3.23;;;;;;;4.61;100.00;98079.56;6121983;23;20183;-80
2023/11/02 02:31:36;;;;;;;3.40;3.10;;;;;;;4.56;100.00;98090.81;6138261;23;20171;-80
2023/11/02 02:34:33;;;;;;;3.50;3.20;;;;;;;4.55;100.00;98105.09;6114271;23;20190;-80
2023/11/02 02:37:23;;;;;;;4.40;3.00;;;;;;;4.52;100.00;98099.44;6163761;23;20168;-80
2023/11/02 02:40:11;;;;;;;3.67;3.27;;;;;;;4.50;100.00;98093.53;6163101;23;20230;-80
2023/11/02 02:42:48;;;;;;;3.43;3.13;;;;;;;4.38;100.00;98080.19;6137100;23;20174;-80
2023/11/02 02:45:20;;;;;;;3.80;3.20;;;;;;;4.36;100.00;98079.56;6162471;23;20217;-80
2023/11/02 02:47:53;;;;;;;3.97;3.33;;;;;;;4.31;100.00;98068.81;6113171;23;20250;-80
2023/11/02 02:50:31;;;;;;;3.57;3.27;;;;;;;4.30;100.00;98067.19;6138117;23;20191;-80
2023/11/02 02:53:08;;;;;;;3.40;3.10;;;;;;;4.28;100.00;98063.94;6139207;23;20246;-80
2023/11/02 02:55:42;;;;;;;4.17;3.30;;;;;;;4.22;100.00;98057.66;6136948;23;20167;-80
2023/11/02 02:58:15;;;;;;;3.40;3.10;;;;;;;4.18;100.00;98058.31;6137869;23;20174;-80
2023/11/02 03:00:48;;;;;;;4.33;3.10;;;;;;;4.14;100.00;98046.53;6138099;23;20194;-81
2023/11/02 03:03:21;;;;;;;3.60;3.30;;;;;;;4.11;100.00;98042.47;6136326;23;20171;-80
2023/11/02 03:05:52;;;;;;;4.63;3.23;;;;;;;4.05;100.00;98035.41;6137003;23;20174;-80
2023/11/02 03:08:22;;;;;;;3.53;3.13;;;;;;;4.03;100.00;98049.88;6137538;23;20186;-79
2023/11/02 03:10:52;;;;;;;3.20;2.90;;;;;;;3.95;100.00;98051.78;6113422;23;20187;-80
2023/11/02 03:13:21;;;;;;;3.40;3.10;;;;;;;3.93;100.00;98042.41;6163337;23;20159;-80
2023/11/02 03:15:53;;;;;;;3.97;2.87;;;;;;;3.93;100.00;98047.69;6113315;23;20177;-81
2023/11/02 03:18:32;;;;;;;4.27;3.10;;;;;;;3.93;100.00;98053.00;6114057;23;20178;-80
2023/11/02 03:20:59;;;;;;;3.37;3.07;;;;;;;3.91;100.00;98061.19;6114314;23;20164;-80
2023/11/02 03:23:38;;;;;;;3.50;3.20;;;;;;;3.93;100.00;98075.00;6139310;23;20158;-80
2023/11/02 03:26:22;;;;;;;3.50;3.20;;;;;;;3.95;100.00;98072.97;6114669;23;20211;-81
2023/11/02 03:29:19;;;;;;;3.40;2.93;;;;;;;3.95;100.00;98075.63;6134728;23;20194;-81
2023/11/02 03:31:47;;;;;;;3.60;2.97;;;;;;;3.95;100.00;98078.28;6113571;23;20193;-80
2023/11/02 03:34:18;;;;;;;3.40;3.10;;;;;;;3.95;100.00;98083.56;6162698;23;20163;-80
2023/11/02 03:36:57;;;;;;;4.27;3.10;;;;;;;3.93;100.00;98085.63;6138358;23;20167;-80
2023/11/02 03:40:03;;;;;;;5.57;3.07;;;;;;;3.92;100.00;98075.22;6138213;23;20217;-80
2023/11/02 03:43:06;;;;;;;3.23;2.93;;;;;;;3.88;100.00;98066.91;6163446;23;20238;-80
2023/11/02 03:45:51;;;;;;;3.30;3.00;;;;;;;3.86;100.00;98071.63;6122727;23;20202;-80
2023/11/02 03:48:36;;;;;;;3.37;2.97;;;;;;;3.82;100.00;98061.66;6162187;23;20191;-80
2023/11/02 03:51:16;;;;;;;3.37;3.10;;;;;;;3.71;100.00;98057.03;6163428;23;20174;-81
2023/11/02 03:54:25;;;;;;;3.47;3.00;;;;;;;3.66;100.00;98046.28;6162881;23;20163;-80
2023/11/02 03:57:26;;;;;;;3.40;3.10;;;;;;;3.61;100.00;98033.66;6161590;23;20175;-80
2023/11/02 04:00:17;;;;;;;3.60;3.30;;;;;;;3.58;100.00;98026.16;6163457;23;20162;-81
2023/11/02 04:02:55;;;;;;;3.67;3.10;;;;;;;3.60;100.00;98028.56;6163156;23;20586;-81
2023/11/02 04:05:28;;;;;;;3.87;3.30;;;;;;;3.58;100.00;98026.16;6163198;23;20170;-81
2023/11/02 04:08:04;;;;;;;3.40;3.10;;;;;;;3.57;100.00;98027.19;6163076;23;20547;-81
2023/11/02 04:10:48;;;;;;;4.57;3.10;;;;;;;3.57;100.00;98026.38;6163459;23;20194;-81
2023/11/02 04:13:22;;;;;;;3.53;3.23;;;;;;;3.57;100.00;98019.22;6139401;23;20190;-81
2023/11/02 04:15:57;;;;;;;3.43;3.13;;;;;;;3.52;100.00;98016.41;6162373;23;20618;-81
2023/11/02 04:18:33;;;;;;;4.23;3.00;;;;;;;3.52;100.00;98017.22;6162421;23;20155;-81
2023/11/02 04:21:02;;;;;;;3.37;3.07;;;;;;;3.50;100.00;98013.16;6162517;23;20168;-80
2023/11/02 04:23:41;;;;;;;3.27;3.00;;;;;;;3.46;100.00;98009.31;6163238;23;20234;-80
2023/11/02 04:26:10;;;;;;;3.60;3.30;;;;;;;3.45;100.00;98003.19;6163256;23;20680;-81
2023/11/02 04:28:42;;;;;;;3.70;3.17;;;;;;;3.39;100.00;97993.50;6162975;23;20186;-81
2023/11/02 04:31:10;;;;;;;3.67;3.20;;;;;;;3.39;100.00;97998.78;6162667;23;20241;-80
2023/11/02 04:33:44;;;;;;;3.33;3.03;;;;;;;3.37;100.00;98005.31;6162902;23;20151;-80
2023/11/02 04:36:17;;;;;;;3.20;3.00;;;;;;;3.33;100.00;97996.97;6162715;23;20204;-80
2023/11/02 04:38:52;;;;;;;3.43;2.93;;;;;;;3.33;100.00;97989.03;6140750;23;20166;-80
2023/11/02 04:41:26;;;;;;;3.50;2.93;;;;;;;3.30;100.00;97978.88;6162432;23;20179;-80
2023/11/02 04:44:12;;;;;;;3.30;3.00;;;;;;;3.26;100.00;97968.94;6164114;23;20531;-81
2023/11/02 04:46:43;;;;;;;3.97;2.80;;;;;;;3.21;100.00;97968.75;6162578;23;20258;-80
2023/11/02 04:49:19;;;;;;;3.23;2.93;;;;;;;3.19;100.00;97960.22;6163058;23;20168;-81
2023/11/02 04:51:59;;;;;;;3.20;2.83;;;;;;;3.14;100.00;97971.44;6164059;23;20187;-80
2023/11/02 04:54:31;;;;;;;2.90;2.70;;;;;;;3.11;100.00;97969.22;6163391;23;20191;-80
2023/11/02 04:57:03;;;;;;;3.17;2.87;;;;;;;3.08;100.00;97967.78;6163158;23;20139;-80
2023/11/02 04:59:58;;;;;;;3.23;2.90;;;;;;;3.07;100.00;97973.31;6139312;23;20194;-80
2023/11/02 05:02:27;;;;;;;3.37;2.80;;;;;;;3.03;100.00;97967.63;6160004;23;20171;-81
2023/11/02 05:05:04;;;;;;;3.60;3.13;;;;;;;3.03;100.00;97958.91;6163196;23;20171;-80
2023/11/02 05:07:44;;;;;;;2.83;2.63;;;;;;;3.02;100.00;97941.38;6164123;23;20156;-81
2023/11/02 05:10:13;;;;;;;3.03;2.73;;;;;;;2.96;100.00;97927.16;6163745;23;20224;-81
2023/11/02 05:12:52;;;;;;;3.63;2.80;;;;;;;2.91;100.00;97923.53;6138414;23;20174;-81
2023/11/02 05:15:40;;;;;;;3.00;2.70;;;;;;;2.90;100.00;97928.00;6163746;23;20254;-80
2023/11/02 05:18:26;;;;;;;3.13;2.60;;;;;;;2.84;100.00;97925.41;6165069;23;20227;-81
2023/11/02 05:20:59;;;;;;;3.70;3.30;;;;;;;2.81;100.00;97915.25;6140114;23;20156;-80
2023/11/02 05:23:30;;;;;;;5.07;3.17;;;;;;;2.80;100.00;97922.38;6165467;23;20153;-81
2023/11/02 05:26:08;;;;;;;3.20;2.90;;;;;;;2.79;100.00;97928.69;6139426;23;20250;-81
2023/11/02 05:28:43;;;;;;;3.30;3.00;;;;;;;2.76;100.00;97929.09;6163171;23;20166;-81
2023/11/02 05:31:14;;;;;;;2.90;2.70;;;;;;;2.82;100.00;97922.97;6166339;23;20183;-80
2023/11/02 05:33:45;;;;;;;3.50;3.20;;;;;;;2.88;100.00;97913.38;6167391;23;20139;-81
2023/11/02 05:36:33;;;;;;;3.20;2.90;;;;;;;2.87;100.00;97909.94;6165559;23;20250;-81
2023/11/02 05:39:01;;;;;;;3.63;2.80;;;;;;;2.85;100.00;97906.66;6167404;23;20163;-81
2023/11/02 05:41:37;;;;;;;3.17;2.80;;;;;;;2.87;100.00;97909.13;6166822;23;20159;-81
2023/11/02 05:44:29;;;;;;;3.13;2.87;;;;;;;2.85;100.00;97906.66;6166819;23;20175;-81
2023/11/02 05:46:59;;;;;;;2.90;2.60;;;;;;;2.83;100.00;97898.16;6141445;23;20167;-80
2023/11/02 05:49:31;;;;;;;3.57;2.80;;;;;;;2.84;100.00;97904.25;6165777;23;20148;-81
2023/11/02 05:52:03;;;;;;;3.17;2.83;;;;;;;2.83;100.00;97897.34;6167492;23;20186;-80
2023/11/02 05:54:32;;;;;;;3.40;3.00;;;;;;;2.84;100.00;97891.03;6167483;23;20159;-81
2023/11/02 05:57:11;;;;;;;3.20;2.90;;;;;;;2.82;100.00;97885.94;6165868;23;20186;-81
2023/11/02 05:59:42;;;;;;;3.73;2.97;;;;;;;2.87;100.00;97882.66;6142710;23;20158;-80
2023/11/02 06:02:12;;;;;;;4.13;2.97;;;;;;;2.91;100.00;97876.72;6165962;23;20175;-80
2023/11/02 06:04:45;;;;;;;2.80;2.60;;;;;;;2.93;100.00;97861.47;6166505;23;20144;-81
2023/11/02 06:07:14;;;;;;;3.27;2.80;;;;;;;2.97;100.00;97859.19;6165380;23;20174;-81
2023/11/02 06:09:44;;;;;;;3.40;3.10;;;;;;;3.02;100.00;97864.66;6164906;23;20194;-80
2023/11/02 06:12:17;;;;;;;3.37;2.93;;;;;;;3.08;100.00;97861.97;6164383;23;20201;-81
2023/11/02 06:14:49;;;;;;;3.97;2.90;;;;;;;3.11;100.00;97850.16;6164196;23;20155;-81
2023/11/02 06:17:22;;;;;;;2.90;2.67;;;;;;;3.21;100.00;97858.41;6164916;23;20209;-80
2023/11/02 06:19:59;;;;;;;3.00;2.70;;;;;;;3.32;100.00;97846.31;6141638;23;20166;-80
2023/11/02 06:22:42;;;;;;;3.23;2.90;;;;;;;3.42;100.00;97847.44;6165586;23;20205;-81
2023/11/02 06:25:19;;;;;;;3.50;3.20;;;;;;;3.53;100.00;97840.63;6165095;23;20158;-80
2023/11/02 06:27:55;;;;;;;3.43;2.93;;;;;;;3.63;100.00;97835.66;6165725;23;20616;-80
2023/11/02 06:30:25;;;;;;;4.20;3.37;;;;;;;3.74;100.00;97842.03;6163054;23;20167;-81
2023/11/02 06:33:00;;;;;;;4.47;3.43;;;;;;;3.82;100.00;97839.94;6163207;23;20206;-81
2023/11/02 06:35:36;;;;;;;4.40;3.33;;;;;;;3.91;100.00;97841.28;6163242;23;20154;-80
2023/11/02 06:38:11;;;;;;;4.50;3.67;;;;;;;4.03;100.00;97836.03;6163268;23;20212;-80
2023/11/02 06:40:48;;;;;;;4.70;3.70;;;;;;;4.11;100.00;97841.03;6163924;23;20637;-81
2023/11/02 06:43:19;;;;;;;4.10;3.57;;;;;;;4.21;100.00;97837.84;6163432;23;20162;-80
2023/11/02 06:45:52;;;;;;;3.03;2.77;;;;;;;4.38;100.00;97838.88;6163152;23;20195;-80
2023/11/02 06:48:34;;;;;;;3.10;2.80;;;;;;;4.50;100.00;97831.78;6146727;23;20167;-81
2023/11/02 06:51:08;;;;;;;3.30;3.00;;;;;;;4.63;100.00;97836.09;6162459;23;20175;-80
2023/11/02 06:53:37;;;;;;;5.20;3.40;;;;;;;4.67;100.00;97829.31;6163404;23;20167;-81
2023/11/02 06:56:12;;;;;;;4.20;3.40;;;;;;;4.77;100.00;97830.38;6164778;23;20147;-80
2023/11/02 06:58:42;;;;;;;3.57;2.80;;;;;;;4.86;100.00;97825.56;6162818;23;20171;-81
2023/11/02 07:01:19;;;;;;;3.53;2.63;;;;;;;5.00;100.00;97812.91;6138295;23;20167;-81
2023/11/02 07:03:55;;;;;;;3.10;2.80;;;;;;;5.12;100.00;97801.28;6162808;23;20167;-80
2023/11/02 07:06:27;;;;;;;3.43;3.13;;;;;;;5.18;100.00;97786.28;6165171;23;20167;-80
2023/11/02 07:08:58;;;;;;;4.00;3.00;;;;;;;5.29;100.00;97777.50;6138732;23;20166;-80
2023/11/02 07:11:29;;;;;;;3.73;3.43;;;;;;;5.41;100.00;97773.03;6163809;23;20179;-80
2023/11/02 07:13:59;;;;;;;5.17;3.90;;;;;;;5.53;100.00;97770.34;6161995;23;20180;-80
2023/11/02 07:16:30;;;;;;;4.80;4.30;;;;;;;5.61;100.00;97760.16;6160520;23;20177;-80
2023/11/02 07:19:05;;;;;;;4.90;4.47;;;;;;;5.74;100.00;97761.75;6161931;23;20191;-80
2023/11/02 07:21:46;;;;;;;6.53;5.40;;;;;;;5.85;100.00;97768.09;6152635;23;20170;-82
2023/11/02 07:24:57;;;;;;;4.03;3.73;;;;;;;5.98;100.00;97765.22;6085706;23;20175;-81
2023/11/02 07:27:35;;;;;;;3.73;2.87;;;;;;;6.10;100.00;97752.72;6076023;23;20153;-81
2023/11/02 07:30:06;;;;;;;4.20;3.00;;;;;;;6.19;100.00;97741.47;6052002;23;20272;-81
2023/11/02 07:32:37;;;;;;;3.53;3.20;;;;;;;6.27;100.00;97742.94;6027679;23;20191;-80
2023/11/02 07:35:10;;;;;;;3.30;3.00;;;;;;;6.38;100.00;97722.66;6030373;23;20236;-81
2023/11/02 07:37:39;;;;;;;3.30;3.00;;;;;;;6.47;100.00;97727.34;6051909;23;20173;-81
2023/11/02 07:40:23;;;;;;;2.93;2.73;;;;;;;6.58;100.00;97717.66;6043030;23;20552;-81
2023/11/02 07:42:53;;;;;;;3.43;2.90;;;;;;;6.72;100.00;97711.00;6051528;23;20234;-81
2023/11/02 07:45:20;;;;;;;3.87;2.83;;;;;;;6.83;100.00;97714.63;6073818;23;20193;-81
2023/11/02 07:47:51;;;;;;;3.03;2.70;;;;;;;6.93;100.00;97714.81;6074913;23;20196;-81
2023/11/02 07:50:25;;;;;;;4.40;3.03;;;;;;;7.08;100.00;97705.22;6052436;23;20164;-80
2023/11/02 07:52:58;;;;;;;4.60;3.77;;;;;;;7.28;100.00;97701.22;6075783;23;20183;-81
2023/11/02 07:55:32;;;;;;;4.17;3.37;;;;;;;7.53;100.00;97699.69;6075453;23;20176;-81
2023/11/02 07:58:06;;;;;;;3.60;3.17;;;;;;;7.75;100.00;97691.72;6075153;23;20201;-80
2023/11/02 08:00:45;;;;;;;3.43;2.00;;;;;;;8.16;100.00;97694.84;6084091;23;20205;-81
2023/11/02 08:03:16;;;;;;;5.20;2.00;;;;;;;8.75;100.00;97690.38;6165584;23;20170;-81
2023/11/02 08:05:43;;;;;;;4.73;2.00;;;;;;;9.15;100.00;97684.50;6165427;23;20251;-81
2023/11/02 08:08:11;;;;;;;3.63;1.57;;;;;;;9.69;100.00;97679.75;6167218;23;20171;-81
2023/11/02 08:10:42;;;;;;;3.73;1.33;;;;;;;10.17;100.00;97672.47;6165663;23;20144;-81
2023/11/02 08:13:21;;;;;;;3.13;1.30;;;;;;;10.68;100.00;97662.63;6165688;23;20203;-81
2023/11/02 08:15:51;;;;;;;2.33;1.33;;;;;;;10.85;100.00;97652.44;6167121;23;20163;-81
2023/11/02 08:18:18;;;;;;;2.17;1.20;;;;;;;11.15;100.00;97639.00;6166204;23;20166;-81
2023/11/02 08:20:49;;;;;;;11.20;2.40;;;;;;;11.46;100.00;97620.97;6166787;23;20163;-81
2023/11/02 08:23:17;;;;;;;5.47;1.37;;;;;;;11.72;100.00;97616.28;6165561;23;20173;-81
2023/11/02 08:25:47;;;;;;;3.93;1.70;;;;;;;11.98;100.00;97609.75;6166239;23;20167;-81
2023/11/02 08:28:18;;;;;;;7.53;1.57;;;;;;;12.26;100.00;97603.69;6142883;23;20245;-81
2023/11/02 08:30:46;;;;;;;7.07;1.60;;;;;;;12.41;100.00;97596.59;6166065;23;20159;-81
2023/11/02 08:33:15;;;;;;;3.77;1.30;;;;;;;12.63;100.00;97595.06;6118421;23;20187;-81
2023/11/02 08:35:53;;;;;;;4.73;1.10;;;;;;;12.73;100.00;97588.81;6142978;23;20238;-81
2023/11/02 08:38:23;;;;;;;2.80;0.90;;;;;;;12.94;100.00;97584.03;6143328;23;20168;-81
2023/11/02 08:40:51;;;;;;;2.20;0.93;;;;;;;13.19;100.00;97581.13;6143825;23;20187;-81
2023/11/02 08:43:19;;;;;;;1.60;0.97;;;;;;;13.17;100.00;97581.41;6165609;23;20618;-81
2023/11/02 08:45:49;;;;;;;1.10;0.70;;;;;;;13.25;100.00;97569.19;6166982;23;20224;-81
2023/11/02 08:48:27;;;;;;;1.90;0.90;;;;;;;13.44;100.00;97570.06;6143358;23;20168;-81
2023/11/02 08:50:54;;;;;;;2.60;1.00;;;;;;;13.66;100.00;97562.25;6167016;23;20202;-81
2023/11/02 08:53:22;;;;;;;2.70;0.80;;;;;;;13.80;100.00;97556.97;6167259;23;20191;-81
2023/11/02 08:55:57;;;;;;;3.13;1.00;;;;;;;14.05;100.00;97548.50;6169235;23;20158;-81
2023/11/02 08:58:42;;;;;;;1.03;0.97;;;;;;;14.18;100.00;97530.03;6170169;23;20150;-82
2023/11/02 09:01:10;;;;;;;2.10;0.70;;;;;;;14.42;100.00;97536.91;6168511;23;20173;-81
2023/11/02 09:03:58;;;;;;;1.33;0.70;;;;;;;14.40;100.00;97544.50;6171437;23;20184;-82
2023/11/02 09:06:26;;;;;;;2.00;0.63;;;;;;;14.51;100.00;97529.75;6146883;23;20177;-81
2023/11/02 09:09:11;;;;;;;1.97;0.80;;;;;;;14.58;100.00;97515.91;6176428;23;20220;-81
2023/11/02 09:11:44;;;;;;;1.60;0.80;;;;;;;14.82;100.00;97505.78;6172042;23;20155;-81
2023/11/02 09:14:14;;;;;;;2.93;0.90;;;;;;;14.99;100.00;97499.78;6168759;23;20189;-81
2023/11/02 09:16:51;;;;;;;2.03;0.80;;;;;;;15.22;100.00;97496.09;6168891;23;20146;-81
2023/11/02 09:19:24;;;;;;;3.53;0.83;;;;;;;15.40;100.00;97487.06;6169743;23;20178;-80
2023/11/02 09:21:54;;;;;;;2.07;1.10;;;;;;;15.67;100.00;97485.47;6177017;23;20210;-81
2023/11/02 09:24:41;;;;;;;2.33;0.87;;;;;;;15.89;100.00;97496.28;6174255;23;20174;-81
2023/11/02 09:27:10;;;;;;;3.07;1.00;;;;;;;16.02;100.00;97489.25;6178596;23;20223;-81
2023/11/02 09:29:40;;;;;;;1.47;0.63;;;;;;;16.19;100.00;97490.16;6177609;23;20194;-82
2023/11/02 09:32:14;;;;;;;1.47;0.70;;;;;;;16.25;100.00;97482.72;6153088;23;20273;-82
2023/11/02 09:35:22;;;;;;;2.07;1.13;;;;;;;16.35;100.00;97481.69;6149978;23;20163;-82
2023/11/02 09:38:00;;;;;;;1.13;0.90;;;;;;;16.39;100.00;97467.25;6181497;23;20179;-82
2023/11/02 09:40:32;;;;;;;1.33;0.83;;;;;;;16.38;100.00;97462.16;6161614;23;20163;-83
2023/11/02 09:43:02;;;;;;;3.40;0.93;;;;;;;16.17;100.00;97472.69;6163675;23;20278;-82
2023/11/02 09:45:37;;;;;;;2.20;1.10;;;;;;;16.22;100.00;97467.94;6139219;23;20206;-83
2023/11/02 09:48:14;;;;;;;1.90;0.80;;;;;;;16.12;100.00;97473.59;6154886;23;20151;-83
2023/11/02 09:50:43;;;;;;;3.90;1.10;;;;;;;16.21;100.00;97469.06;6160641;23;20232;-82
2023/11/02 09:53:37;;;;;;;0.90;0.70;;;;;;;16.07;100.00;97467.50;6161362;23;20199;-82
2023/11/02 09:56:10;;;;;;;1.47;0.63;;;;;;;16.09;100.00;97459.91;6167525;23;20205;-83
2023/11/02 09:58:40;;;;;;;1.20;0.70;;;;;;;15.98;100.00;97453.16;6156371;23;20155;-83
2023/11/02 10:01:15;;;;;;;3.33;0.80;;;;;;;15.86;100.00;97440.97;6158249;23;20151;-83
2023/11/02 10:03:49;;;;;;;1.23;0.90;;;;;;;15.78;100.00;97439.03;6111533;23;20175;-82
2023/11/02 10:06:22;;;;;;;1.50;0.57;;;;;;;15.98;100.00;97447.75;6156023;23;20251;-83
2023/11/02 10:08:58;;;;;;;0.90;0.47;;;;;;;15.97;100.00;97449.66;6171507;23;20178;-82
2023/11/02 10:11:46;;;;;;;2.10;0.80;;;;;;;16.06;100.00;97439.69;6177402;23;20189;-81
2023/11/02 10:14:15;;;;;;;1.07;0.80;;;;;;;16.16;100.00;97425.94;6166005;23;20170;-82
2023/11/02 10:16:46;;;;;;;2.97;0.77;;;;;;;16.37;100.00;97417.34;6173781;23;20163;-82
2023/11/02 10:19:16;;;;;;;3.10;0.90;;;;;;;16.66;100.00;97414.94;6161207;23;20182;-83
2023/11/02 10:21:47;;;;;;;5.80;0.87;;;;;;;16.92;100.00;97412.34;6155242;23;20171;-84
2023/11/02 10:24:14;;;;;;;2.37;0.80;;;;;;;17.08;100.00;97410.78;6155696;23;20602;-84
2023/11/02 10:26:42;;;;;;;1.87;0.80;;;;;;;17.01;100.00;97402.34;6156398;23;20179;-84
2023/11/02 10:29:10;;;;;;;2.13;0.80;;;;;;;17.12;100.00;97400.94;6151868;23;20167;-85
2023/11/02 10:31:44;;;;;;;2.30;0.80;;;;;;;17.16;100.00;97399.19;6151465;23;20148;-84
2023/11/02 10:34:15;;;;;;;3.43;0.87;;;;;;;17.47;100.00;97399.06;6154455;23;20561;-83
2023/11/02 10:36:43;;;;;;;2.67;0.87;;;;;;;17.42;100.00;97386.47;6083503;23;20178;-85
2023/11/02 10:39:12;;;;;;;2.13;1.10;;;;;;;17.49;100.00;97376.00;6154945;23;20163;-83
2023/11/02 10:41:41;;;;;;;3.13;1.07;;;;;;;17.35;100.00;97386.16;6156639;23;20167;-84
2023/11/02 10:44:17;;;;;;;5.27;1.23;;;;;;;17.28;100.00;97368.78;6110019;23;20198;-85
2023/11/02 10:46:47;;;;;;;3.03;0.90;;;;;;;17.36;100.00;97366.09;6156083;23;20234;-82
2023/11/02 10:49:26;;;;;;;3.33;1.00;;;;;;;17.46;100.00;97356.84;6131339;23;20171;-84
2023/11/02 11:36:34;;;;;;;2.77;1.40;;;;;;;17.15;100.00;97275.84;6164781;23;20199;-84
2023/11/02 11:39:36;;;;;;;2.80;1.00;;;;;;;17.34;100.00;97281.72;6130696;23;20167;-83
2023/11/02 11:42:13;;;;;;;1.37;0.70;;;;;;;17.29;100.00;97273.75;6106756;23;20175;-84
2023/11/02 11:44:42;;;;;;;2.03;1.00;;;;;;;17.50;100.00;97269.28;6096258;23;20213;-84
2023/11/02 11:47:13;;;;;;;2.93;0.90;;;;;;;17.49;100.00;97256.88;6123859;23;20233;-84
2023/11/02 11:49:44;;;;;;;2.10;0.70;;;;;;;17.48;100.00;97252.56;6100910;23;20156;-84
2023/11/02 11:52:28;;;;;;;3.73;1.17;;;;;;;17.51;100.00;97248.41;6100234;23;20171;-84
2023/11/02 11:54:58;;;;;;;2.40;0.70;;;;;;;17.44;100.00;97254.34;6124837;23;20168;-83
2023/11/02 11:57:53;;;;;;;3.33;1.00;;;;;;;17.56;100.00;97240.13;6099889;23;20764;-84
2023/11/02 12:00:24;;;;;;;2.00;0.87;;;;;;;17.64;100.00;97247.44;6100698;23;20203;-84
2023/11/02 12:02:55;;;;;;;1.93;0.60;;;;;;;17.74;100.00;97246.31;6123899;23;20572;-84
2023/11/02 12:05:44;;;;;;;1.27;0.70;;;;;;;17.83;100.00;97237.03;6124330;23;20160;-86
2023/11/02 12:08:16;;;;;;;3.43;1.00;;;;;;;17.79;100.00;97238.00;6100570;23;20218;-84
2023/11/02 12:10:48;;;;;;;1.93;0.80;;;;;;;17.64;100.00;97230.44;6100480;23;20175;-84
2023/11/02 12:13:16;;;;;;;1.93;0.73;;;;;;;17.64;100.00;97233.91;6075876;23;20244;-86
2023/11/02 12:16:01;;;;;;;1.50;0.80;;;;;;;17.46;100.00;97226.94;6100165;23;20163;-85
2023/11/02 12:18:34;;;;;;;1.30;0.70;;;;;;;17.36;100.00;97236.19;6101599;23;20159;-84
2023/11/02 12:21:18;;;;;;;1.53;0.90;;;;;;;17.22;100.00;97230.16;6099945;23;20194;-86
2023/11/02 12:23:46;;;;;;;1.03;0.70;;;;;;;17.24;100.00;97225.22;6124496;23;20164;-84
2023/11/02 12:26:14;;;;;;;0.93;0.60;;;;;;;17.31;100.00;97241.75;6099157;23;20194;-84
2023/11/02 12:28:50;;;;;;;1.83;0.73;;;;;;;17.39;100.00;97213.09;6100117;23;20171;-84
2023/11/02 12:31:35;;;;;;;1.13;0.70;;;;;;;17.41;100.00;97206.22;6098958;23;20242;-87
2023/11/02 12:34:08;;;;;;;1.70;0.60;;;;;;;17.47;100.00;97196.84;6124063;23;20188;-84
2023/11/02 12:36:46;;;;;;;1.90;0.80;;;;;;;17.48;100.00;97193.03;6099197;23;20222;-84
2023/11/02 12:39:20;;;;;;;2.57;0.70;;;;;;;17.50;100.00;97179.16;6100957;23;20174;-87
2023/11/02 12:41:50;;;;;;;2.27;0.73;;;;;;;17.55;100.00;97168.94;6127546;23;20242;-84
2023/11/02 12:44:23;;;;;;;1.40;0.70;;;;;;;17.56;100.00;97167.03;6100863;23;20192;-85
2023/11/02 12:47:06;;;;;;;1.30;0.60;;;;;;;17.56;100.00;97170.53;6079010;23;20176;-85
2023/11/02 12:49:40;;;;;;;1.90;0.87;;;;;;;17.57;100.00;97157.78;6103313;23;20227;-84
2023/11/02 12:52:16;;;;;;;3.33;0.83;;;;;;;17.50;100.00;97162.91;6102583;23;20227;-86
2023/11/02 12:54:56;;;;;;;1.17;0.70;;;;;;;17.43;100.00;97166.13;6102057;23;20219;-85
2023/11/02 12:57:25;;;;;;;3.43;1.50;;;;;;;17.39;100.00;97161.69;6101368;23;20171;-84
2023/11/02 12:59:53;;;;;;;2.97;0.90;;;;;;;17.42;100.00;97163.72;6100994;23;20188;-86
2023/11/02 13:02:26;;;;;;;1.93;0.90;;;;;;;17.51;100.00;97153.66;6127275;23;20175;-84
2023/11/02 13:05:00;;;;;;;2.47;0.80;;;;;;;17.51;100.00;97142.84;6125928;23;20195;-85